sensor_id;sensor_type;location;lat;lon;timestamp;P1;durP1;ratioP1;P2;durP2;ratioP2
7835;SDS011;3963;42.658;23.298;2023-07-13T00:02:04;13.93;;;4.93;;
7835;SDS011;3963;42.658;23.298;2023-07-13T00:04:31;7.83;;;4.70;;
7835;SDS011;3963;42.658;23.298;2023-07-13T00:07:00;9.67;;;5.20;;
7835;SDS011;3963;42.658;23.298;2023-07-13T00:09:26;9.03;;;4.27;;
7835;SDS011;3963;42.658;23.298;2023-07-13T00:11:54;8.20;;;4.73;;
7835;SDS011;3963;42.658;23.298;2023-07-13T00:14:23;6.00;;;4.67;;
7835;SDS011;3963;42.658;23.298;2023-07-13T00:16:50;6.83;;;4.73;;
7835;SDS011;3963;42.658;23.298;2023-07-13T00:19:18;9.93;;;4.50;;
7835;SDS011;3963;42.658;23.298;2023-07-13T00:21:45;7.57;;;4.43;;
7835;SDS011;3963;42.658;23.298;2023-07-13T00:24:15;8.57;;;4.47;;
7835;SDS011;3963;42.658;23.298;2023-07-13T00:26:47;5.70;;;4.57;;
7835;SDS011;3963;42.658;23.298;2023-07-13T00:29:14;7.57;;;4.43;;
7835;SDS011;3963;42.658;23.298;2023-07-13T00:31:41;7.90;;;4.70;;
7835;SDS011;3963;42.658;23.298;2023-07-13T00:34:09;7.33;;;4.93;;
7835;SDS011;3963;42.658;23.298;2023-07-13T00:36:36;6.10;;;4.80;;
7835;SDS011;3963;42.658;23.298;2023-07-13T00:39:02;6.63;;;4.40;;
7835;SDS011;3963;42.658;23.298;2023-07-13T00:41:31;7.20;;;5.00;;
7835;SDS011;3963;42.658;23.298;2023-07-13T00:43:58;7.90;;;4.90;;
7835;SDS011;3963;42.658;23.298;2023-07-13T00:46:27;7.67;;;4.70;;
7835;SDS011;3963;42.658;23.298;2023-07-13T00:48:56;9.77;;;5.17;;
7835;SDS011;3963;42.658;23.298;2023-07-13T00:51:28;8.40;;;4.97;;
7835;SDS011;3963;42.658;23.298;2023-07-13T00:54:00;8.73;;;4.87;;
7835;SDS011;3963;42.658;23.298;2023-07-13T00:56:31;6.17;;;5.10;;
7835;SDS011;3963;42.658;23.298;2023-07-13T00:59:00;7.80;;;4.50;;
7835;SDS011;3963;42.658;23.298;2023-07-13T01:01:29;7.03;;;5.33;;
7835;SDS011;3963;42.658;23.298;2023-07-13T01:03:56;6.27;;;4.53;;
7835;SDS011;3963;42.658;23.298;2023-07-13T01:06:22;6.17;;;4.53;;
7835;SDS011;3963;42.658;23.298;2023-07-13T01:08:48;7.73;;;4.80;;
7835;SDS011;3963;42.658;23.298;2023-07-13T01:11:18;6.77;;;4.27;;
7835;SDS011;3963;42.658;23.298;2023-07-13T01:13:48;8.50;;;5.07;;
7835;SDS011;3963;42.658;23.298;2023-07-13T01:16:17;7.07;;;4.67;;
7835;SDS011;3963;42.658;23.298;2023-07-13T01:18:48;8.30;;;4.60;;
7835;SDS011;3963;42.658;23.298;2023-07-13T01:21:16;5.67;;;4.33;;
7835;SDS011;3963;42.658;23.298;2023-07-13T01:23:44;6.10;;;4.90;;
7835;SDS011;3963;42.658;23.298;2023-07-13T01:26:11;8.37;;;4.73;;
7835;SDS011;3963;42.658;23.298;2023-07-13T01:28:38;5.97;;;4.43;;
7835;SDS011;3963;42.658;23.298;2023-07-13T01:31:05;6.00;;;4.73;;
7835;SDS011;3963;42.658;23.298;2023-07-13T01:33:33;8.03;;;4.73;;
7835;SDS011;3963;42.658;23.298;2023-07-13T01:36:00;7.63;;;5.23;;
7835;SDS011;3963;42.658;23.298;2023-07-13T01:38:28;6.37;;;4.73;;
7835;SDS011;3963;42.658;23.298;2023-07-13T01:40:55;5.67;;;4.67;;
7835;SDS011;3963;42.658;23.298;2023-07-13T01:43:22;7.57;;;4.60;;
7835;SDS011;3963;42.658;23.298;2023-07-13T01:45:49;7.87;;;5.00;;
7835;SDS011;3963;42.658;23.298;2023-07-13T01:48:15;6.70;;;5.63;;
7835;SDS011;3963;42.658;23.298;2023-07-13T01:50:43;6.53;;;4.83;;
7835;SDS011;3963;42.658;23.298;2023-07-13T01:53:09;6.40;;;4.53;;
7835;SDS011;3963;42.658;23.298;2023-07-13T01:55:38;9.47;;;5.37;;
7835;SDS011;3963;42.658;23.298;2023-07-13T01:58:05;7.17;;;5.00;;
7835;SDS011;3963;42.658;23.298;2023-07-13T02:00:32;13.27;;;5.50;;
7835;SDS011;3963;42.658;23.298;2023-07-13T02:02:58;12.13;;;5.33;;
7835;SDS011;3963;42.658;23.298;2023-07-13T02:05:25;7.87;;;4.83;;
7835;SDS011;3963;42.658;23.298;2023-07-13T02:07:52;9.20;;;4.63;;
7835;SDS011;3963;42.658;23.298;2023-07-13T02:10:19;8.77;;;4.77;;
7835;SDS011;3963;42.658;23.298;2023-07-13T02:12:47;7.07;;;4.87;;
7835;SDS011;3963;42.658;23.298;2023-07-13T02:15:15;7.57;;;5.20;;
7835;SDS011;3963;42.658;23.298;2023-07-13T02:17:42;7.17;;;5.27;;
7835;SDS011;3963;42.658;23.298;2023-07-13T02:20:09;8.90;;;5.30;;
7835;SDS011;3963;42.658;23.298;2023-07-13T02:22:37;6.77;;;4.77;;
7835;SDS011;3963;42.658;23.298;2023-07-13T02:25:04;10.87;;;5.47;;
7835;SDS011;3963;42.658;23.298;2023-07-13T02:27:31;6.70;;;4.87;;
7835;SDS011;3963;42.658;23.298;2023-07-13T02:29:59;10.23;;;5.73;;
7835;SDS011;3963;42.658;23.298;2023-07-13T02:32:26;8.70;;;5.03;;
7835;SDS011;3963;42.658;23.298;2023-07-13T02:34:53;6.57;;;4.77;;
7835;SDS011;3963;42.658;23.298;2023-07-13T02:37:20;8.03;;;5.10;;
7835;SDS011;3963;42.658;23.298;2023-07-13T02:39:47;12.80;;;5.17;;
7835;SDS011;3963;42.658;23.298;2023-07-13T02:42:14;8.63;;;5.30;;
7835;SDS011;3963;42.658;23.298;2023-07-13T02:44:41;8.03;;;5.60;;
7835;SDS011;3963;42.658;23.298;2023-07-13T02:47:09;12.47;;;5.50;;
7835;SDS011;3963;42.658;23.298;2023-07-13T02:49:36;8.97;;;5.23;;
7835;SDS011;3963;42.658;23.298;2023-07-13T02:52:04;12.50;;;5.40;;
7835;SDS011;3963;42.658;23.298;2023-07-13T02:54:31;8.30;;;5.60;;
7835;SDS011;3963;42.658;23.298;2023-07-13T02:56:58;7.53;;;5.60;;
7835;SDS011;3963;42.658;23.298;2023-07-13T02:59:25;10.57;;;5.30;;
7835;SDS011;3963;42.658;23.298;2023-07-13T03:01:51;9.27;;;5.30;;
7835;SDS011;3963;42.658;23.298;2023-07-13T03:04:20;8.80;;;5.80;;
7835;SDS011;3963;42.658;23.298;2023-07-13T03:06:46;11.00;;;5.40;;
7835;SDS011;3963;42.658;23.298;2023-07-13T03:09:14;10.50;;;5.80;;
7835;SDS011;3963;42.658;23.298;2023-07-13T03:11:40;8.43;;;5.80;;
7835;SDS011;3963;42.658;23.298;2023-07-13T03:14:07;8.53;;;5.80;;
7835;SDS011;3963;42.658;23.298;2023-07-13T03:16:36;11.70;;;6.10;;
7835;SDS011;3963;42.658;23.298;2023-07-13T03:19:02;10.57;;;5.60;;
7835;SDS011;3963;42.658;23.298;2023-07-13T03:21:31;9.23;;;6.23;;
7835;SDS011;3963;42.658;23.298;2023-07-13T03:23:58;8.97;;;6.13;;
7835;SDS011;3963;42.658;23.298;2023-07-13T03:26:25;11.47;;;6.37;;
7835;SDS011;3963;42.658;23.298;2023-07-13T03:28:51;8.77;;;5.67;;
7835;SDS011;3963;42.658;23.298;2023-07-13T03:31:19;11.07;;;6.10;;
7835;SDS011;3963;42.658;23.298;2023-07-13T03:33:48;15.17;;;6.10;;
7835;SDS011;3963;42.658;23.298;2023-07-13T03:36:17;12.90;;;5.70;;
7835;SDS011;3963;42.658;23.298;2023-07-13T03:38:48;13.83;;;7.27;;
7835;SDS011;3963;42.658;23.298;2023-07-13T03:41:16;10.43;;;6.17;;
7835;SDS011;3963;42.658;23.298;2023-07-13T03:43:43;9.50;;;6.10;;
7835;SDS011;3963;42.658;23.298;2023-07-13T03:46:10;15.93;;;6.80;;
7835;SDS011;3963;42.658;23.298;2023-07-13T03:48:37;11.10;;;6.20;;
7835;SDS011;3963;42.658;23.298;2023-07-13T03:51:05;8.53;;;6.20;;
7835;SDS011;3963;42.658;23.298;2023-07-13T03:53:32;12.80;;;7.10;;
7835;SDS011;3963;42.658;23.298;2023-07-13T03:56:00;9.60;;;6.33;;
7835;SDS011;3963;42.658;23.298;2023-07-13T03:58:31;12.73;;;6.70;;
7835;SDS011;3963;42.658;23.298;2023-07-13T04:01:00;10.40;;;5.93;;
7835;SDS011;3963;42.658;23.298;2023-07-13T04:03:28;9.50;;;6.37;;
7835;SDS011;3963;42.658;23.298;2023-07-13T04:05:58;13.27;;;6.87;;
7835;SDS011;3963;42.658;23.298;2023-07-13T04:08:26;17.00;;;7.73;;
7835;SDS011;3963;42.658;23.298;2023-07-13T04:10:53;13.40;;;7.30;;
7835;SDS011;3963;42.658;23.298;2023-07-13T04:13:22;11.80;;;6.67;;
7835;SDS011;3963;42.658;23.298;2023-07-13T04:15:49;10.97;;;6.83;;
7835;SDS011;3963;42.658;23.298;2023-07-13T04:18:16;13.57;;;6.90;;
7835;SDS011;3963;42.658;23.298;2023-07-13T04:20:44;13.70;;;6.90;;
7835;SDS011;3963;42.658;23.298;2023-07-13T04:23:11;14.57;;;8.17;;
7835;SDS011;3963;42.658;23.298;2023-07-13T04:25:38;10.17;;;6.93;;
7835;SDS011;3963;42.658;23.298;2023-07-13T04:28:05;9.57;;;7.20;;
7835;SDS011;3963;42.658;23.298;2023-07-13T04:30:34;15.77;;;7.73;;
7835;SDS011;3963;42.658;23.298;2023-07-13T04:33:01;15.83;;;9.60;;
7835;SDS011;3963;42.658;23.298;2023-07-13T04:35:27;11.07;;;8.17;;
7835;SDS011;3963;42.658;23.298;2023-07-13T04:37:54;13.37;;;7.97;;
7835;SDS011;3963;42.658;23.298;2023-07-13T04:40:21;16.07;;;9.00;;
7835;SDS011;3963;42.658;23.298;2023-07-13T04:42:48;18.43;;;8.73;;
7835;SDS011;3963;42.658;23.298;2023-07-13T04:45:14;15.67;;;8.67;;
7835;SDS011;3963;42.658;23.298;2023-07-13T04:47:44;13.43;;;8.47;;
7835;SDS011;3963;42.658;23.298;2023-07-13T04:50:12;14.47;;;10.00;;
7835;SDS011;3963;42.658;23.298;2023-07-13T04:52:43;14.37;;;9.77;;
7835;SDS011;3963;42.658;23.298;2023-07-13T04:55:10;16.43;;;9.87;;
7835;SDS011;3963;42.658;23.298;2023-07-13T04:57:37;14.83;;;10.30;;
7835;SDS011;3963;42.658;23.298;2023-07-13T05:00:04;14.67;;;10.73;;
7835;SDS011;3963;42.658;23.298;2023-07-13T05:02:33;13.37;;;9.70;;
7835;SDS011;3963;42.658;23.298;2023-07-13T05:05:02;14.87;;;10.03;;
7835;SDS011;3963;42.658;23.298;2023-07-13T05:07:29;13.87;;;10.20;;
7835;SDS011;3963;42.658;23.298;2023-07-13T05:09:58;21.43;;;11.93;;
7835;SDS011;3963;42.658;23.298;2023-07-13T05:12:24;18.07;;;11.63;;
7835;SDS011;3963;42.658;23.298;2023-07-13T05:14:51;16.03;;;10.87;;
7835;SDS011;3963;42.658;23.298;2023-07-13T05:17:19;18.07;;;11.27;;
7835;SDS011;3963;42.658;23.298;2023-07-13T05:19:46;20.10;;;11.23;;
7835;SDS011;3963;42.658;23.298;2023-07-13T05:22:15;22.00;;;12.77;;
7835;SDS011;3963;42.658;23.298;2023-07-13T05:24:41;19.10;;;11.50;;
7835;SDS011;3963;42.658;23.298;2023-07-13T05:27:08;17.10;;;12.63;;
7835;SDS011;3963;42.658;23.298;2023-07-13T05:29:35;16.07;;;11.30;;
7835;SDS011;3963;42.658;23.298;2023-07-13T05:32:02;17.07;;;12.37;;
7835;SDS011;3963;42.658;23.298;2023-07-13T05:34:29;14.40;;;10.90;;
7835;SDS011;3963;42.658;23.298;2023-07-13T05:36:56;17.73;;;11.67;;
7835;SDS011;3963;42.658;23.298;2023-07-13T05:39:25;20.73;;;12.67;;
7835;SDS011;3963;42.658;23.298;2023-07-13T05:41:53;16.43;;;11.90;;
7835;SDS011;3963;42.658;23.298;2023-07-13T05:44:19;19.03;;;11.87;;
7835;SDS011;3963;42.658;23.298;2023-07-13T05:46:46;16.20;;;11.93;;
7835;SDS011;3963;42.658;23.298;2023-07-13T05:49:13;14.63;;;12.33;;
7835;SDS011;3963;42.658;23.298;2023-07-13T05:51:40;18.90;;;12.10;;
7835;SDS011;3963;42.658;23.298;2023-07-13T05:54:07;15.63;;;11.47;;
7835;SDS011;3963;42.658;23.298;2023-07-13T05:56:37;13.03;;;10.20;;
7835;SDS011;3963;42.658;23.298;2023-07-13T05:59:04;15.30;;;10.87;;
7835;SDS011;3963;42.658;23.298;2023-07-13T06:01:32;15.83;;;10.70;;
7835;SDS011;3963;42.658;23.298;2023-07-13T06:03:59;15.00;;;10.70;;
7835;SDS011;3963;42.658;23.298;2023-07-13T06:06:26;17.53;;;11.10;;
7835;SDS011;3963;42.658;23.298;2023-07-13T06:08:53;14.97;;;10.00;;
7835;SDS011;3963;42.658;23.298;2023-07-13T06:11:20;15.60;;;8.53;;
7835;SDS011;3963;42.658;23.298;2023-07-13T06:13:50;13.07;;;8.40;;
7835;SDS011;3963;42.658;23.298;2023-07-13T06:16:17;14.17;;;7.93;;
7835;SDS011;3963;42.658;23.298;2023-07-13T06:18:45;14.57;;;7.87;;
7835;SDS011;3963;42.658;23.298;2023-07-13T06:21:13;11.77;;;8.13;;
7835;SDS011;3963;42.658;23.298;2023-07-13T06:23:41;11.63;;;7.90;;
7835;SDS011;3963;42.658;23.298;2023-07-13T06:26:08;15.23;;;9.17;;
7835;SDS011;3963;42.658;23.298;2023-07-13T06:28:35;12.20;;;9.67;;
7835;SDS011;3963;42.658;23.298;2023-07-13T06:31:06;16.53;;;10.47;;
7835;SDS011;3963;42.658;23.298;2023-07-13T06:33:34;15.37;;;10.73;;
7835;SDS011;3963;42.658;23.298;2023-07-13T06:36:01;16.13;;;10.30;;
7835;SDS011;3963;42.658;23.298;2023-07-13T06:38:28;17.97;;;11.03;;
7835;SDS011;3963;42.658;23.298;2023-07-13T06:40:55;15.60;;;9.80;;
7835;SDS011;3963;42.658;23.298;2023-07-13T06:43:21;14.20;;;10.03;;
7835;SDS011;3963;42.658;23.298;2023-07-13T06:45:50;14.70;;;9.40;;
7835;SDS011;3963;42.658;23.298;2023-07-13T06:48:19;15.63;;;10.03;;
7835;SDS011;3963;42.658;23.298;2023-07-13T06:50:46;17.60;;;9.77;;
7835;SDS011;3963;42.658;23.298;2023-07-13T06:53:14;16.30;;;9.67;;
7835;SDS011;3963;42.658;23.298;2023-07-13T06:55:43;14.33;;;8.90;;
7835;SDS011;3963;42.658;23.298;2023-07-13T06:58:10;11.30;;;8.50;;
7835;SDS011;3963;42.658;23.298;2023-07-13T07:00:36;11.98;;;8.85;;
7835;SDS011;3963;42.658;23.298;2023-07-13T07:03:05;12.32;;;8.45;;
7835;SDS011;3963;42.658;23.298;2023-07-13T07:05:33;14.02;;;8.60;;
7835;SDS011;3963;42.658;23.298;2023-07-13T07:08:00;13.25;;;8.93;;
7835;SDS011;3963;42.658;23.298;2023-07-13T07:10:29;11.73;;;9.00;;
7835;SDS011;3963;42.658;23.298;2023-07-13T07:12:56;13.30;;;9.27;;
7835;SDS011;3963;42.658;23.298;2023-07-13T07:15:23;11.95;;;8.38;;
7835;SDS011;3963;42.658;23.298;2023-07-13T07:17:49;14.27;;;8.75;;
7835;SDS011;3963;42.658;23.298;2023-07-13T07:20:16;13.93;;;9.30;;
7835;SDS011;3963;42.658;23.298;2023-07-13T07:22:44;14.27;;;7.82;;
7835;SDS011;3963;42.658;23.298;2023-07-13T07:25:11;11.95;;;8.18;;
7835;SDS011;3963;42.658;23.298;2023-07-13T07:27:38;10.10;;;7.32;;
7835;SDS011;3963;42.658;23.298;2023-07-13T07:30:05;13.18;;;7.45;;
7835;SDS011;3963;42.658;23.298;2023-07-13T07:32:33;12.43;;;7.30;;
7835;SDS011;3963;42.658;23.298;2023-07-13T07:35:00;10.18;;;7.97;;
7835;SDS011;3963;42.658;23.298;2023-07-13T07:37:26;10.07;;;6.93;;
7835;SDS011;3963;42.658;23.298;2023-07-13T07:39:54;12.00;;;7.65;;
7835;SDS011;3963;42.658;23.298;2023-07-13T07:42:21;8.95;;;8.00;;
7835;SDS011;3963;42.658;23.298;2023-07-13T07:44:48;12.20;;;7.65;;
7835;SDS011;3963;42.658;23.298;2023-07-13T07:47:15;13.20;;;7.85;;
7835;SDS011;3963;42.658;23.298;2023-07-13T07:49:41;10.65;;;7.53;;
7835;SDS011;3963;42.658;23.298;2023-07-13T07:52:08;12.48;;;7.72;;
7835;SDS011;3963;42.658;23.298;2023-07-13T07:54:35;10.85;;;7.13;;
7835;SDS011;3963;42.658;23.298;2023-07-13T07:57:04;12.00;;;7.65;;
7835;SDS011;3963;42.658;23.298;2023-07-13T07:59:31;14.77;;;7.78;;
7835;SDS011;3963;42.658;23.298;2023-07-13T08:01:57;11.60;;;7.45;;
7835;SDS011;3963;42.658;23.298;2023-07-13T08:04:24;14.80;;;8.52;;
7835;SDS011;3963;42.658;23.298;2023-07-13T08:06:51;11.98;;;7.20;;
7835;SDS011;3963;42.658;23.298;2023-07-13T08:09:17;9.75;;;7.88;;
7835;SDS011;3963;42.658;23.298;2023-07-13T08:11:44;12.82;;;7.78;;
7835;SDS011;3963;42.658;23.298;2023-07-13T08:14:12;10.88;;;6.70;;
7835;SDS011;3963;42.658;23.298;2023-07-13T08:16:39;17.73;;;8.40;;
7835;SDS011;3963;42.658;23.298;2023-07-13T08:19:06;17.40;;;7.35;;
7835;SDS011;3963;42.658;23.298;2023-07-13T08:21:33;12.98;;;6.85;;
7835;SDS011;3963;42.658;23.298;2023-07-13T08:24:00;12.07;;;7.65;;
7835;SDS011;3963;42.658;23.298;2023-07-13T08:26:27;16.08;;;7.72;;
7835;SDS011;3963;42.658;23.298;2023-07-13T08:28:53;11.45;;;7.07;;
7835;SDS011;3963;42.658;23.298;2023-07-13T08:31:22;13.80;;;7.05;;
7835;SDS011;3963;42.658;23.298;2023-07-13T08:33:48;10.13;;;7.32;;
7835;SDS011;3963;42.658;23.298;2023-07-13T08:36:15;15.05;;;7.78;;
7835;SDS011;3963;42.658;23.298;2023-07-13T08:38:42;11.55;;;7.15;;
7835;SDS011;3963;42.658;23.298;2023-07-13T08:41:10;9.63;;;6.80;;
7835;SDS011;3963;42.658;23.298;2023-07-13T08:43:39;13.43;;;7.25;;
7835;SDS011;3963;42.658;23.298;2023-07-13T08:46:09;10.35;;;6.80;;
7835;SDS011;3963;42.658;23.298;2023-07-13T08:48:43;10.35;;;7.70;;
7835;SDS011;3963;42.658;23.298;2023-07-13T08:51:16;15.07;;;6.78;;
7835;SDS011;3963;42.658;23.298;2023-07-13T08:53:54;11.60;;;6.97;;
7835;SDS011;3963;42.658;23.298;2023-07-13T08:56:24;11.77;;;7.40;;
7835;SDS011;3963;42.658;23.298;2023-07-13T08:58:54;8.35;;;6.30;;
7835;SDS011;3963;42.658;23.298;2023-07-13T09:01:24;10.55;;;6.72;;
7835;SDS011;3963;42.658;23.298;2023-07-13T09:03:59;11.98;;;6.90;;
7835;SDS011;3963;42.658;23.298;2023-07-13T09:06:34;12.57;;;6.60;;
7835;SDS011;3963;42.658;23.298;2023-07-13T09:09:07;9.55;;;7.00;;
7835;SDS011;3963;42.658;23.298;2023-07-13T09:11:45;10.68;;;7.20;;
7835;SDS011;3963;42.658;23.298;2023-07-13T09:14:26;10.68;;;6.85;;
7835;SDS011;3963;42.658;23.298;2023-07-13T09:17:01;14.23;;;8.40;;
7835;SDS011;3963;42.658;23.298;2023-07-13T09:19:32;10.77;;;7.28;;
7835;SDS011;3963;42.658;23.298;2023-07-13T09:22:01;11.70;;;7.85;;
7835;SDS011;3963;42.658;23.298;2023-07-13T09:24:35;13.20;;;8.10;;
7835;SDS011;3963;42.658;23.298;2023-07-13T09:27:09;10.40;;;8.25;;
7835;SDS011;3963;42.658;23.298;2023-07-13T09:29:44;16.98;;;7.82;;
7835;SDS011;3963;42.658;23.298;2023-07-13T09:32:16;12.85;;;9.00;;
7835;SDS011;3963;42.658;23.298;2023-07-13T09:34:51;13.07;;;8.00;;
7835;SDS011;3963;42.658;23.298;2023-07-13T09:37:20;10.30;;;7.75;;
7835;SDS011;3963;42.658;23.298;2023-07-13T09:39:49;12.25;;;8.35;;
7835;SDS011;3963;42.658;23.298;2023-07-13T09:42:19;17.15;;;8.55;;
7835;SDS011;3963;42.658;23.298;2023-07-13T09:44:52;15.13;;;7.97;;
7835;SDS011;3963;42.658;23.298;2023-07-13T09:47:21;11.15;;;8.00;;
7835;SDS011;3963;42.658;23.298;2023-07-13T09:49:55;12.63;;;8.18;;
7835;SDS011;3963;42.658;23.298;2023-07-13T09:52:24;11.80;;;7.50;;
7835;SDS011;3963;42.658;23.298;2023-07-13T09:54:53;9.57;;;7.75;;
7835;SDS011;3963;42.658;23.298;2023-07-13T09:57:25;14.38;;;7.72;;
7835;SDS011;3963;42.658;23.298;2023-07-13T09:59:55;14.05;;;7.30;;
7835;SDS011;3963;42.658;23.298;2023-07-13T10:02:25;12.73;;;7.85;;
7835;SDS011;3963;42.658;23.298;2023-07-13T10:04:59;17.52;;;7.93;;
7835;SDS011;3963;42.658;23.298;2023-07-13T10:07:29;11.48;;;8.23;;
7835;SDS011;3963;42.658;23.298;2023-07-13T10:09:58;8.55;;;6.03;;
7835;SDS011;3963;42.658;23.298;2023-07-13T10:12:28;11.52;;;6.43;;
7835;SDS011;3963;42.658;23.298;2023-07-13T10:14:57;9.15;;;4.60;;
7835;SDS011;3963;42.658;23.298;2023-07-13T10:17:27;8.60;;;4.55;;
7835;SDS011;3963;42.658;23.298;2023-07-13T10:19:59;6.90;;;4.72;;
7835;SDS011;3963;42.658;23.298;2023-07-13T10:22:32;12.75;;;5.10;;
7835;SDS011;3963;42.658;23.298;2023-07-13T10:25:10;13.25;;;4.75;;
7835;SDS011;3963;42.658;23.298;2023-07-13T10:27:42;12.25;;;4.53;;
7835;SDS011;3963;42.658;23.298;2023-07-13T10:30:11;13.60;;;5.05;;
7835;SDS011;3963;42.658;23.298;2023-07-13T10:32:42;7.57;;;4.22;;
7835;SDS011;3963;42.658;23.298;2023-07-13T10:35:10;10.27;;;4.43;;
7835;SDS011;3963;42.658;23.298;2023-07-13T10:37:41;5.35;;;4.28;;
7835;SDS011;3963;42.658;23.298;2023-07-13T10:40:12;14.57;;;5.03;;
7835;SDS011;3963;42.658;23.298;2023-07-13T10:42:43;11.13;;;4.55;;
7835;SDS011;3963;42.658;23.298;2023-07-13T10:45:14;12.15;;;4.72;;
7835;SDS011;3963;42.658;23.298;2023-07-13T10:47:43;9.80;;;4.55;;
7835;SDS011;3963;42.658;23.298;2023-07-13T10:50:15;11.20;;;5.10;;
7835;SDS011;3963;42.658;23.298;2023-07-13T10:52:46;17.70;;;4.85;;
7835;SDS011;3963;42.658;23.298;2023-07-13T10:55:31;10.30;;;4.80;;
7835;SDS011;3963;42.658;23.298;2023-07-13T10:58:01;13.07;;;4.82;;
7835;SDS011;3963;42.658;23.298;2023-07-13T11:00:31;8.50;;;4.80;;
7835;SDS011;3963;42.658;23.298;2023-07-13T11:02:59;13.43;;;5.15;;
7835;SDS011;3963;42.658;23.298;2023-07-13T11:05:30;8.70;;;4.70;;
7835;SDS011;3963;42.658;23.298;2023-07-13T11:08:03;14.30;;;5.10;;
7835;SDS011;3963;42.658;23.298;2023-07-13T11:10:46;7.38;;;4.68;;
7835;SDS011;3963;42.658;23.298;2023-07-13T11:16:28;10.77;;;5.13;;
7835;SDS011;3963;42.658;23.298;2023-07-13T11:22:12;9.07;;;5.13;;
7835;SDS011;3963;42.658;23.298;2023-07-13T11:24:48;12.20;;;4.68;;
7835;SDS011;3963;42.658;23.298;2023-07-13T11:27:24;7.35;;;4.80;;
7835;SDS011;3963;42.658;23.298;2023-07-13T11:32:50;11.82;;;5.32;;
7835;SDS011;3963;42.658;23.298;2023-07-13T11:35:21;7.13;;;4.88;;
7835;SDS011;3963;42.658;23.298;2023-07-13T11:37:52;10.30;;;5.45;;
7835;SDS011;3963;42.658;23.298;2023-07-13T11:40:20;10.85;;;5.28;;
7835;SDS011;3963;42.658;23.298;2023-07-13T11:42:57;13.82;;;5.18;;
7835;SDS011;3963;42.658;23.298;2023-07-13T11:45:25;11.75;;;5.65;;
7835;SDS011;3963;42.658;23.298;2023-07-13T11:47:53;9.13;;;4.93;;
7835;SDS011;3963;42.658;23.298;2023-07-13T11:50:22;8.77;;;5.20;;
7835;SDS011;3963;42.658;23.298;2023-07-13T11:52:50;18.73;;;5.63;;
7835;SDS011;3963;42.658;23.298;2023-07-13T11:55:21;9.68;;;4.80;;
7835;SDS011;3963;42.658;23.298;2023-07-13T11:57:50;14.35;;;4.88;;
7835;SDS011;3963;42.658;23.298;2023-07-13T12:00:23;13.18;;;5.25;;
7835;SDS011;3963;42.658;23.298;2023-07-13T12:02:56;10.38;;;4.80;;
7835;SDS011;3963;42.658;23.298;2023-07-13T12:05:27;15.02;;;5.20;;
7835;SDS011;3963;42.658;23.298;2023-07-13T12:07:57;13.20;;;4.45;;
7835;SDS011;3963;42.658;23.298;2023-07-13T12:10:24;10.55;;;4.95;;
7835;SDS011;3963;42.658;23.298;2023-07-13T12:12:55;9.27;;;4.63;;
7835;SDS011;3963;42.658;23.298;2023-07-13T12:15:23;9.57;;;5.25;;
7835;SDS011;3963;42.658;23.298;2023-07-13T12:17:55;12.38;;;6.00;;
7835;SDS011;3963;42.658;23.298;2023-07-13T12:20:24;12.63;;;4.80;;
7835;SDS011;3963;42.658;23.298;2023-07-13T12:22:52;11.93;;;5.03;;
7835;SDS011;3963;42.658;23.298;2023-07-13T12:25:21;12.35;;;4.60;;
7835;SDS011;3963;42.658;23.298;2023-07-13T12:27:49;10.55;;;5.35;;
7835;SDS011;3963;42.658;23.298;2023-07-13T12:30:26;8.23;;;4.97;;
7835;SDS011;3963;42.658;23.298;2023-07-13T12:32:56;13.18;;;4.85;;
7835;SDS011;3963;42.658;23.298;2023-07-13T12:35:29;13.10;;;5.03;;
7835;SDS011;3963;42.658;23.298;2023-07-13T12:38:00;11.65;;;5.43;;
7835;SDS011;3963;42.658;23.298;2023-07-13T12:40:31;11.23;;;5.30;;
7835;SDS011;3963;42.658;23.298;2023-07-13T12:43:01;14.88;;;6.32;;
7835;SDS011;3963;42.658;23.298;2023-07-13T12:45:31;12.23;;;6.10;;
7835;SDS011;3963;42.658;23.298;2023-07-13T12:47:59;16.48;;;6.40;;
7835;SDS011;3963;42.658;23.298;2023-07-13T12:50:36;13.73;;;6.05;;
7835;SDS011;3963;42.658;23.298;2023-07-13T12:53:09;10.68;;;4.75;;
7835;SDS011;3963;42.658;23.298;2023-07-13T12:55:44;8.85;;;4.53;;
7835;SDS011;3963;42.658;23.298;2023-07-13T12:58:16;12.05;;;6.20;;
7835;SDS011;3963;42.658;23.298;2023-07-13T13:00:48;8.75;;;6.10;;
7835;SDS011;3963;42.658;23.298;2023-07-13T13:03:20;9.70;;;6.35;;
7835;SDS011;3963;42.658;23.298;2023-07-13T13:05:56;13.05;;;5.68;;
7835;SDS011;3963;42.658;23.298;2023-07-13T13:08:24;11.35;;;6.38;;
7835;SDS011;3963;42.658;23.298;2023-07-13T13:10:53;11.15;;;6.18;;
7835;SDS011;3963;42.658;23.298;2023-07-13T13:13:19;15.00;;;6.85;;
7835;SDS011;3963;42.658;23.298;2023-07-13T13:15:46;11.18;;;5.68;;
7835;SDS011;3963;42.658;23.298;2023-07-13T13:18:16;11.82;;;5.43;;
7835;SDS011;3963;42.658;23.298;2023-07-13T13:20:44;10.82;;;5.57;;
7835;SDS011;3963;42.658;23.298;2023-07-13T13:23:12;10.50;;;5.10;;
7835;SDS011;3963;42.658;23.298;2023-07-13T13:25:42;7.90;;;4.53;;
7835;SDS011;3963;42.658;23.298;2023-07-13T13:28:14;12.50;;;6.38;;
7835;SDS011;3963;42.658;23.298;2023-07-13T13:30:43;11.10;;;6.07;;
7835;SDS011;3963;42.658;23.298;2023-07-13T13:33:10;8.82;;;5.47;;
7835;SDS011;3963;42.658;23.298;2023-07-13T13:35:38;10.05;;;5.00;;
7835;SDS011;3963;42.658;23.298;2023-07-13T13:38:09;9.60;;;4.22;;
7835;SDS011;3963;42.658;23.298;2023-07-13T13:40:39;8.43;;;4.50;;
7835;SDS011;3963;42.658;23.298;2023-07-13T13:43:15;7.32;;;4.38;;
7835;SDS011;3963;42.658;23.298;2023-07-13T13:45:42;8.77;;;4.60;;
7835;SDS011;3963;42.658;23.298;2023-07-13T13:48:13;12.35;;;5.63;;
7835;SDS011;3963;42.658;23.298;2023-07-13T13:50:41;7.40;;;4.32;;
7835;SDS011;3963;42.658;23.298;2023-07-13T13:53:09;9.13;;;4.28;;
7835;SDS011;3963;42.658;23.298;2023-07-13T13:55:38;13.05;;;4.65;;
7835;SDS011;3963;42.658;23.298;2023-07-13T13:58:06;9.38;;;4.53;;
7835;SDS011;3963;42.658;23.298;2023-07-13T14:00:35;8.32;;;4.80;;
7835;SDS011;3963;42.658;23.298;2023-07-13T14:03:02;10.00;;;4.75;;
7835;SDS011;3963;42.658;23.298;2023-07-13T14:05:32;10.02;;;4.38;;
7835;SDS011;3963;42.658;23.298;2023-07-13T14:07:58;11.05;;;4.38;;
7835;SDS011;3963;42.658;23.298;2023-07-13T14:10:25;16.65;;;5.18;;
7835;SDS011;3963;42.658;23.298;2023-07-13T14:12:54;9.32;;;4.90;;
7835;SDS011;3963;42.658;23.298;2023-07-13T14:15:23;8.57;;;5.00;;
7835;SDS011;3963;42.658;23.298;2023-07-13T14:17:53;23.15;;;6.07;;
7835;SDS011;3963;42.658;23.298;2023-07-13T14:20:23;11.27;;;4.57;;
7835;SDS011;3963;42.658;23.298;2023-07-13T14:22:52;11.38;;;5.10;;
7835;SDS011;3963;42.658;23.298;2023-07-13T14:25:20;17.02;;;5.75;;
7835;SDS011;3963;42.658;23.298;2023-07-13T14:27:48;17.38;;;9.75;;
7835;SDS011;3963;42.658;23.298;2023-07-13T14:30:21;9.32;;;4.47;;
7835;SDS011;3963;42.658;23.298;2023-07-13T14:32:48;8.20;;;4.38;;
7835;SDS011;3963;42.658;23.298;2023-07-13T14:35:17;19.10;;;5.43;;
7835;SDS011;3963;42.658;23.298;2023-07-13T14:37:47;13.82;;;4.70;;
7835;SDS011;3963;42.658;23.298;2023-07-13T14:40:14;11.70;;;4.90;;
7835;SDS011;3963;42.658;23.298;2023-07-13T14:42:42;18.30;;;5.30;;
7835;SDS011;3963;42.658;23.298;2023-07-13T14:45:13;10.55;;;5.00;;
7835;SDS011;3963;42.658;23.298;2023-07-13T14:47:41;8.82;;;4.47;;
7835;SDS011;3963;42.658;23.298;2023-07-13T14:50:13;12.70;;;4.97;;
7835;SDS011;3963;42.658;23.298;2023-07-13T14:52:43;9.98;;;4.90;;
7835;SDS011;3963;42.658;23.298;2023-07-13T14:55:11;10.13;;;4.88;;
7835;SDS011;3963;42.658;23.298;2023-07-13T14:57:39;11.77;;;5.63;;
7835;SDS011;3963;42.658;23.298;2023-07-13T15:00:12;22.92;;;6.00;;
7835;SDS011;3963;42.658;23.298;2023-07-13T15:02:40;11.75;;;5.10;;
7835;SDS011;3963;42.658;23.298;2023-07-13T15:05:12;10.77;;;5.30;;
7835;SDS011;3963;42.658;23.298;2023-07-13T15:07:42;12.02;;;4.90;;
7835;SDS011;3963;42.658;23.298;2023-07-13T15:10:13;12.10;;;5.03;;